• Join FlightAware (Why Join?)
  • Login
  • US Flag 
03:01AM EDT


 

Airport Tracker/Info


-or-


 

Live Flight TrackerFlight Track Log ✈ FLG3432 ✈ 18-06-2013 ✈ KSLC - KDFW

Flight Track Log - Related Links

Times and Time Zones

All times are in EDT time to prevent confusion due to time zone crossing. See the FLG3432 flight status page for this flight to view local times or setup timezone preferences in your user account.

Time Position Orientation Groundspeed Altitude Reporting Facility
EDT Latitude Longitude Course Direction KTS MPH feet Rate Location/Type
07:57PM 40.7692 -111.9750 151° Southeast 165 190 5,000  Level Salt Lake Center
07:58PM 40.6861 -111.9694 177° South 203 234 7,500 1,380 Climbing Salt Lake Center
07:59PM 40.6158 -111.9622 176° South 266 306 8,500 1,440 Climbing Salt Lake Center
08:00PM 40.3084 -111.9333 180° South  Level FlightAware Approximate
08:00PM 40.5544 -111.9461 169° South 275 316 10,200  Level Salt Lake Center
08:01PM 40.1988 -111.8824 150° Southeast  Level FlightAware Approximate
08:01PM 40.5242 -111.9319 160° South 281 323 10,600  Level Salt Lake Center
08:02PM 40.0978 -111.7984 151° Southeast  Level FlightAware Approximate
08:02PM 40.4372 -111.9069 168° South 324 373 12,000  Level Salt Lake Center
08:03PM 40.3464 -111.8814 168° South 336 387 13,700 1,680 Climbing Salt Lake Center
08:04PM 40.2292 -111.8494 168° South 362 417 15,500 2,160 Climbing Salt Lake Center
08:05PM 40.1314 -111.8192 167° South 359 413 18,200 1,980 Climbing Salt Lake Center
08:06PM 40.0403 -111.7581 153° Southeast 372 428 19,600 960 Climbing Salt Lake Center
08:07PM 39.9489 -111.6736 145° Southeast 415 478 20,300 960 Climbing Salt Lake Center
08:08PM 39.8589 -111.5533 134° Southeast 435 501 21,600 1,260 Climbing Salt Lake Center
08:09PM 39.7744 -111.4428 135° Southeast 446 513 22,900 1,140 Climbing Salt Lake Center
08:10PM 39.6697 -111.3036 134° Southeast 461 531 24,000 960 Climbing Salt Lake Center
08:11PM 39.5886 -111.1942 134° Southeast 461 531 25,000 1,080 Climbing Salt Lake Center
08:12PM 39.4839 -111.0578 135° Southeast 476 548 26,300 1,200 Climbing Salt Lake Center
08:13PM 39.3944 -110.9400 134° Southeast 479 551 27,500 1,200 Climbing Salt Lake Center
08:14PM 39.2914 -110.8047 135° Southeast 475 547 28,900 1,200 Climbing Salt Lake Center
08:15PM 39.2017 -110.6906 135° Southeast 474 545 30,100 1,140 Climbing Salt Lake Center
08:16PM 39.0989 -110.5558 134° Southeast 473 544 31,300 1,140 Climbing Salt Lake Center
08:17PM 39.0108 -110.4425 135° Southeast 470 541 32,500 1,200 Climbing Salt Lake Center
08:18PM 38.9083 -110.3117 135° Southeast 468 539 33,800 720 Climbing Salt Lake Center
08:19PM 38.8208 -110.2000 135° Southeast 465 535 34,000 60 Climbing Salt Lake Center
08:20PM 38.7464 -110.1047 135° Southeast 464 534 34,000  Level Denver Center
08:21PM 38.6586 -109.9939 135° Southeast 465 535 34,000 300 Level Denver Center
08:22PM 38.5539 -109.8600 135° Southeast 474 545 34,700 660 Climbing Denver Center
08:23PM 38.4622 -109.7464 136° Southeast 480 552 35,500 600 Climbing Denver Center
08:25PM 38.3425 -109.5956 135° Southeast 479 551 36,200 600 Climbing Denver Center
08:26PM 38.2317 -109.4286 130° Southeast 486 559 36,900 360 Climbing Denver Center
08:27PM 38.1769 -109.2719 114° Southeast 507 583 37,000  Climbing Denver Center
08:28PM 38.1147 -109.0925 114° Southeast 500 575 37,000  Level Denver Center
08:29PM 38.0606 -108.9342 113° Southeast 507 583 37,000  Level Denver Center
08:30PM 38.0050 -108.7736 114° Southeast 504 580 37,000  Level Denver Center
08:31PM 37.9425 -108.5944 114° Southeast 499 574 37,000  Level Denver Center
08:32PM 37.8883 -108.4414 114° Southeast 496 571 37,000  Level Denver Center
08:33PM 37.7969 -108.2922 128° Southeast 479 551 37,000  Level Denver Center
08:34PM 37.7181 -108.1650 128° Southeast 478 550 37,000  Level Denver Center
08:35PM 37.6247 -108.0119 128° Southeast 486 559 37,000  Level Denver Center
08:36PM 37.5453 -107.8850 128° Southeast 483 556 37,000  Level Denver Center
08:37PM 37.4508 -107.7344 128° Southeast 487 560 37,000  Level Denver Center
08:38PM 37.3694 -107.6075 129° Southeast 486 559 37,000  Level Denver Center
08:39PM 37.2711 -107.4642 131° Southeast 485 558 37,000  Level Denver Center
08:40PM 37.1717 -107.3622 141° Southeast 479 551 37,000  Level Denver Center
08:41PM 37.0861 -107.2803 143° Southeast 481 554 37,000  Level Denver Center
08:42PM 36.9478 -107.1506 143° Southeast 486 559 37,000  Level Denver Center
08:43PM 36.8431 -107.0533 143° Southeast 488 562 37,000  Level Denver Center
08:44PM 36.7206 -106.9397 143° Southeast 489 563 37,000  Level Denver Center
08:45PM 36.6164 -106.8411 143° Southeast 490 564 37,000  Level Denver Center
08:46PM 36.5294 -106.7619 144° Southeast 489 563 37,000  Level Albuquerque Center
08:47PM 36.4078 -106.6508 144° Southeast 486 559 37,000  Level Albuquerque Center
08:48PM 36.3064 -106.5486 141° Southeast 489 563 37,000  Level Albuquerque Center
08:49PM 36.2433 -106.4039 118° Southeast 501 577 37,000  Level Albuquerque Center
08:50PM 36.1939 -106.2197 108° East 504 580 37,000  Level Albuquerque Center
08:51PM 36.1489 -106.0589 109° East 508 585 37,000  Level Albuquerque Center
08:52PM 36.1050 -105.8956 108° East 503 579 37,000  Level Albuquerque Center
08:53PM 36.0594 -105.7333 109° East 500 575 37,000  Level Albuquerque Center
08:54PM 36.0144 -105.5719 109° East 497 572 37,000  Level Albuquerque Center
08:55PM 35.9625 -105.3844 109° East 497 572 37,000  Level Albuquerque Center
08:56PM 35.9144 -105.2222 110° East 498 573 37,000  Level Albuquerque Center
08:57PM 35.8683 -105.0603 109° East 496 571 37,000  Level Albuquerque Center
08:58PM 35.8225 -104.8969 109° East 498 573 37,000  Level Albuquerque Center
08:59PM 35.7753 -104.7347 110° East 498 573 37,000  Level Albuquerque Center
09:00PM 35.7283 -104.5711 109° East 500 575 37,000  Level Albuquerque Center
09:01PM 35.6822 -104.4083 109° East 499 574 37,000  Level Albuquerque Center
09:03PM 35.6353 -104.2464 110° East 497 572 37,000  Level Albuquerque Center
09:04PM 35.5872 -104.0839 110° East 497 572 37,000  Level Albuquerque Center
09:05PM 35.5403 -103.9208 109° East 498 573 37,000  Level Albuquerque Center
09:06PM 35.4919 -103.7586 110° East 498 573 37,000  Level Albuquerque Center
09:07PM 35.4431 -103.5964 110° East 500 575 37,000  Level Albuquerque Center
09:08PM 35.3864 -103.4072 110° East 501 577 37,000  Level Albuquerque Center
09:09PM 35.3378 -103.2444 110° East 502 578 37,000  Level Albuquerque Center
09:10PM 35.2889 -103.0836 110° East 501 577 37,000  Level Albuquerque Center
09:11PM 35.2383 -102.9203 111° Southeast 500 575 37,000  Level Albuquerque Center
09:12PM 35.1881 -102.7625 111° Southeast 500 575 37,000  Level Albuquerque Center
09:13PM 35.1397 -102.6050 111° Southeast 499 574 37,000  Level Albuquerque Center
09:14PM 35.0903 -102.4472 111° Southeast 499 574 37,000  Level Albuquerque Center
09:15PM 35.0411 -102.2914 111° Southeast 497 572 37,000  Level Albuquerque Center
09:16PM 34.9922 -102.1356 111° Southeast 496 571 37,000  Level Albuquerque Center
09:17PM 34.9333 -101.9497 111° Southeast 495 570 37,000  Level Albuquerque Center
09:18PM 34.8844 -101.7956 111° Southeast 495 570 37,000  Level Albuquerque Center
09:19PM 34.8356 -101.6419 111° Southeast 493 567 37,000  Level Albuquerque Center
09:20PM 34.7875 -101.4883 111° Southeast 492 566 37,000  Level Albuquerque Center
09:21PM 34.7378 -101.3358 112° Southeast 490 564 37,000  Level Albuquerque Center
09:22PM 34.6889 -101.1831 111° Southeast 489 563 37,000  Level Albuquerque Center
09:23PM 34.6289 -100.9997 112° Southeast 489 563 37,000  Level Albuquerque Center
09:24PM 34.5803 -100.8478 111° Southeast 487 560 37,000  Level Albuquerque Center
09:25PM 34.5292 -100.6961 112° Southeast 487 560 37,000  Level Albuquerque Center
09:26PM 34.4792 -100.5433 112° Southeast 489 563 37,000  Level Albuquerque Center
09:27PM 34.4281 -100.3894 112° Southeast 491 565 37,000  Level Albuquerque Center
09:28PM 34.3769 -100.2364 112° Southeast 492 566 37,000  Level Albuquerque Center
09:29PM 34.3322 -100.1044 112° Southeast 481 554 37,000  Level Fort Worth Center
09:30PM 34.2811 -99.9494 112° Southeast 486 559 37,000  Level Fort Worth Center
09:31PM 34.2278 -99.7947 113° Southeast 486 559 37,000  Level Fort Worth Center
09:32PM 34.1744 -99.6353 112° Southeast 493 567 37,000 -300 Level Fort Worth Center
09:33PM 34.1228 -99.4833 112° Southeast 493 567 36,400 -840 Descending Fort Worth Center
09:34PM 34.0728 -99.3392 113° Southeast 485 558 35,400 -1,020 Descending Fort Worth Center
09:35PM 34.0189 -99.1875 113° Southeast 478 550 34,400 -1,380 Descending Fort Worth Center
09:36PM 33.9708 -99.0414 112° Southeast 478 550 32,700 -1,380 Descending Fort Worth Center
09:37PM 33.9183 -98.8953 113° Southeast 478 550 31,700 -1,140 Descending Fort Worth Center
09:38PM 33.8678 -98.7467 112° Southeast 478 550 30,500 -1,800 Descending Fort Worth Center
09:39PM 33.8150 -98.5986 113° Southeast 478 550 28,100 -2,700 Descending Fort Worth Center
09:40PM 33.7642 -98.4528 113° Southeast 478 550 25,200 -2,580 Descending Fort Worth Center
09:41PM 33.7150 -98.3200 114° Southeast 448 516 23,000 -2,400 Descending Fort Worth Center
09:42PM 33.6681 -98.1922 114° Southeast 428 493 20,500 -2,460 Descending Fort Worth Center
09:43PM 33.6247 -98.0694 113° Southeast 405 466 18,100 -2,400 Descending Fort Worth Center
09:44PM 33.5628 -97.9619 125° Southeast 391 450 15,700 -1,920 Descending Fort Worth Center
09:45PM 33.5089 -97.8644 124° Southeast 370 426 14,300 -1,500 Descending Fort Worth Center
09:46PM 33.4592 -97.7769 124° Southeast 333 383 12,700 -1,620 Descending Fort Worth Center
09:47PM 33.4114 -97.6922 124° Southeast 310 357 11,100 -1,500 Descending Fort Worth Center
09:48PM 33.3656 -97.6250 129° Southeast 304 350 9,700 -1,500 Descending Fort Worth Center
09:49PM 33.3092 -97.5575 135° Southeast 288 331 8,100 -960 Descending Fort Worth Center
09:50PM 33.2486 -97.4856 135° Southeast 282 325 7,800 -1,020 Descending Fort Worth Center
09:51PM 33.2217 -97.4108 113° Southeast 269 310 6,100 -1,680 Descending Fort Worth Center
09:52PM 33.2008 -97.3167 105° East 269 310 4,500 -1,080 Descending Fort Worth Center
09:53PM 33.1819 -97.2422 107° East 258 297 4,000 -300 Descending Fort Worth Center
09:54PM 33.1275 -97.1728 133° Southeast 247 284 4,000 -480 Level Fort Worth Center
09:55PM 33.0836 -97.1183 134° Southeast 253 291 3,100 -780 Descending Fort Worth Center
09:56PM 33.0311 -97.0714 143° Southeast 230 265 2,500 -600 Descending Fort Worth Center
09:57PM 32.9914 -97.0544 160° South 200 230 2,000 -600 Descending Fort Worth Center
09:58PM 32.9539 -97.0569 183° South 159 183 1,400 -660 Descending Fort Worth Center
09:59PM 32.9142 -97.0547 177° South 149 171 700 -720 Descending Fort Worth Center